createdAt,value
2023-06-28T00:01:56.000Z,2.8
2023-06-28T00:05:29.000Z,2.9
2023-06-28T00:09:01.000Z,2.6
2023-06-28T00:12:34.000Z,2.6
2023-06-28T00:16:07.000Z,2.7
2023-06-28T00:19:39.000Z,2.9
2023-06-28T00:22:31.000Z,2.9
2023-06-28T00:26:04.000Z,3
2023-06-28T00:29:36.000Z,3
2023-06-28T00:33:09.000Z,2.7
2023-06-28T00:36:42.000Z,2.9
2023-06-28T00:40:14.000Z,2.7
2023-06-28T00:43:47.000Z,2.7
2023-06-28T00:47:20.000Z,2.7
2023-06-28T00:50:52.000Z,2.9
2023-06-28T00:54:25.000Z,3
2023-06-28T00:57:58.000Z,2.5
2023-06-28T01:00:49.000Z,3
2023-06-28T01:04:22.000Z,2.7
2023-06-28T01:07:55.000Z,2.6
2023-06-28T01:11:27.000Z,2.8
2023-06-28T01:15:00.000Z,2.6
2023-06-28T01:18:32.000Z,2.8
2023-06-28T01:22:05.000Z,2.5
2023-06-28T01:25:38.000Z,2.7
2023-06-28T01:29:11.000Z,2.6
2023-06-28T01:32:43.000Z,2.5
2023-06-28T01:36:16.000Z,2.4
2023-06-28T01:39:07.000Z,2.7
2023-06-28T01:42:40.000Z,2.5
2023-06-28T01:46:13.000Z,2.4
2023-06-28T01:49:46.000Z,2.4
2023-06-28T01:53:18.000Z,2.5
2023-06-28T01:56:51.000Z,2.4
2023-06-28T02:00:24.000Z,2.7
2023-06-28T02:03:56.000Z,2.2
2023-06-28T02:07:29.000Z,2.5
2023-06-28T02:11:02.000Z,2.8
2023-06-28T02:14:35.000Z,2.6
2023-06-28T02:17:26.000Z,2.7
2023-06-28T02:20:58.000Z,2.9
2023-06-28T02:24:31.000Z,2.8
2023-06-28T02:28:04.000Z,2.7
2023-06-28T02:31:36.000Z,2.4
2023-06-28T02:35:09.000Z,2.4
2023-06-28T02:38:42.000Z,2.7
2023-06-28T02:42:14.000Z,2.2
2023-06-28T02:45:47.000Z,2.5
2023-06-28T02:49:20.000Z,2.9
2023-06-28T02:52:52.000Z,2.2
2023-06-28T02:55:43.000Z,2.4
2023-06-28T02:59:16.000Z,2.4
2023-06-28T03:02:49.000Z,2.6
2023-06-28T03:06:22.000Z,2.3
2023-06-28T03:09:54.000Z,2.5
2023-06-28T03:13:27.000Z,2.6
2023-06-28T03:17:02.000Z,2.5
2023-06-28T03:20:35.000Z,2.4
2023-06-28T03:24:08.000Z,2.3
2023-06-28T03:27:41.000Z,2.8
2023-06-28T03:31:13.000Z,2.3
2023-06-28T03:34:04.000Z,2.5
2023-06-28T03:37:37.000Z,2.3
2023-06-28T03:41:10.000Z,2.6
2023-06-28T03:44:42.000Z,2.4
2023-06-28T03:48:15.000Z,2.7
2023-06-28T03:51:47.000Z,2.6
2023-06-28T03:55:20.000Z,2.8
2023-06-28T04:07:24.000Z,2.6
2023-06-28T04:10:57.000Z,2.6
2023-06-28T04:13:48.000Z,2.7
2023-06-28T04:17:21.000Z,2.7
2023-06-28T04:20:54.000Z,2.8
2023-06-28T04:24:27.000Z,2.4
2023-06-28T04:27:59.000Z,3
2023-06-28T04:31:32.000Z,3.3
2023-06-28T04:35:05.000Z,3.6
2023-06-28T04:38:38.000Z,3.6
2023-06-28T04:42:10.000Z,2.9
2023-06-28T04:45:43.000Z,3.8
2023-06-28T04:49:16.000Z,4.1
2023-06-28T04:52:07.000Z,4.3
2023-06-28T04:55:39.000Z,4.2
2023-06-28T04:59:12.000Z,2.9
2023-06-28T05:02:45.000Z,3.1
2023-06-28T05:06:18.000Z,3
2023-06-28T05:09:50.000Z,2.8
2023-06-28T05:13:23.000Z,2.5
2023-06-28T05:16:56.000Z,2.5
2023-06-28T05:20:29.000Z,2.7
2023-06-28T05:24:01.000Z,2.6
2023-06-28T05:27:34.000Z,2.5
2023-06-28T05:30:25.000Z,3.6
2023-06-28T05:33:58.000Z,2.6
2023-06-28T05:37:30.000Z,3.2
2023-06-28T05:41:03.000Z,3.1
2023-06-28T05:44:35.000Z,3.2
2023-06-28T05:48:08.000Z,2.4
2023-06-28T05:51:41.000Z,2.9
2023-06-28T05:55:13.000Z,2.8
2023-06-28T05:58:46.000Z,3.2
2023-06-28T06:02:19.000Z,2.9
2023-06-28T06:05:52.000Z,2.7
2023-06-28T06:08:43.000Z,2.2
2023-06-28T06:12:16.000Z,2.7
2023-06-28T06:15:48.000Z,2.7
2023-06-28T06:19:21.000Z,2.3
2023-06-28T06:22:54.000Z,2.8
2023-06-28T06:26:27.000Z,2.9
2023-06-28T06:29:59.000Z,2.1
2023-06-28T06:33:32.000Z,3
2023-06-28T06:37:05.000Z,3
2023-06-28T06:40:38.000Z,2.4
2023-06-28T06:44:11.000Z,2.1
2023-06-28T06:47:02.000Z,3
2023-06-28T06:50:35.000Z,2.5
2023-06-28T06:54:08.000Z,3.1
2023-06-28T06:57:40.000Z,2.3
2023-06-28T07:01:13.000Z,2.5
2023-06-28T07:04:46.000Z,2.2
2023-06-28T07:08:18.000Z,2.1
2023-06-28T07:11:51.000Z,2.9
2023-06-28T07:15:24.000Z,2.2
2023-06-28T07:18:57.000Z,2.2
2023-06-28T07:22:30.000Z,2.2
2023-06-28T07:25:21.000Z,2.3
2023-06-28T07:28:54.000Z,2.1
2023-06-28T07:32:26.000Z,2.2
2023-06-28T07:35:59.000Z,2.6
2023-06-28T07:39:32.000Z,2.6
2023-06-28T07:43:06.000Z,2.7
2023-06-28T07:46:39.000Z,2.2
2023-06-28T07:50:12.000Z,2
2023-06-28T07:53:44.000Z,2.2
2023-06-28T07:57:17.000Z,2.3
2023-06-28T08:00:50.000Z,2.3
2023-06-28T08:03:41.000Z,2.1
2023-06-28T08:07:14.000Z,2.3
2023-06-28T08:10:46.000Z,2.7
2023-06-28T08:14:19.000Z,2.1
2023-06-28T08:17:52.000Z,2.1
2023-06-28T08:21:25.000Z,2.4
2023-06-28T08:24:57.000Z,2
2023-06-28T08:28:30.000Z,2.5
2023-06-28T08:32:24.000Z,2.4
2023-06-28T08:35:57.000Z,2.1
2023-06-28T08:39:29.000Z,2.3
2023-06-28T08:42:21.000Z,1.7
2023-06-28T08:45:53.000Z,2.2
2023-06-28T08:49:26.000Z,1.9
2023-06-28T08:52:59.000Z,2.1
2023-06-28T08:56:31.000Z,2.1
2023-06-28T09:00:18.000Z,2
2023-06-28T09:03:51.000Z,1.9
2023-06-28T09:07:24.000Z,1.9
2023-06-28T09:10:58.000Z,2
2023-06-28T09:14:31.000Z,2.1
2023-06-28T09:18:03.000Z,2.4
2023-06-28T09:20:55.000Z,2.1
2023-06-28T09:24:27.000Z,2.3
2023-06-28T09:28:00.000Z,1.7
2023-06-28T09:31:33.000Z,2
2023-06-28T09:35:06.000Z,2.4
2023-06-28T09:38:39.000Z,2.2
2023-06-28T09:42:11.000Z,1.9
2023-06-28T09:45:44.000Z,2.1
2023-06-28T09:49:17.000Z,2.4
2023-06-28T09:52:50.000Z,2
2023-06-28T09:56:22.000Z,2
2023-06-28T10:02:51.000Z,2
2023-06-28T10:06:25.000Z,1.9
2023-06-28T10:09:58.000Z,1.9
2023-06-28T10:13:31.000Z,2.2
2023-06-28T10:17:03.000Z,1.9
2023-06-28T10:20:36.000Z,1.6
2023-06-28T10:24:09.000Z,1.7
2023-06-28T10:27:42.000Z,2.1
2023-06-28T10:31:15.000Z,2
2023-06-28T10:34:48.000Z,1.8
2023-06-28T10:37:39.000Z,1.9
2023-06-28T10:41:15.000Z,1.9
2023-06-28T10:44:48.000Z,1.6
2023-06-28T10:48:21.000Z,1.7
2023-06-28T10:51:53.000Z,1.6
2023-06-28T10:55:26.000Z,1.8
2023-06-28T10:58:59.000Z,1.7
2023-06-28T11:02:32.000Z,1.7
2023-06-28T11:06:05.000Z,1.7
2023-06-28T11:09:38.000Z,1.5
2023-06-28T11:13:10.000Z,1.6
2023-06-28T11:16:02.000Z,1.7
2023-06-28T11:19:34.000Z,1.8
2023-06-28T11:23:07.000Z,1.7
2023-06-28T11:26:40.000Z,1.8
2023-06-28T11:30:12.000Z,1.8
2023-06-28T11:33:45.000Z,1.6
2023-06-28T11:37:18.000Z,1.8
2023-06-28T11:40:50.000Z,1.5
2023-06-28T11:44:23.000Z,1.6
2023-06-28T11:47:56.000Z,1.8
2023-06-28T11:51:29.000Z,1.7
2023-06-28T11:54:19.000Z,1.8
2023-06-28T11:57:52.000Z,1.5
2023-06-28T12:01:25.000Z,1.6
2023-06-28T12:04:58.000Z,2
2023-06-28T12:08:31.000Z,1.9
2023-06-28T12:12:03.000Z,2
2023-06-28T12:15:36.000Z,1.8
2023-06-28T12:19:09.000Z,1.6
2023-06-28T12:22:42.000Z,1.9
2023-06-28T12:26:14.000Z,2.3
2023-06-28T12:29:47.000Z,2.1
2023-06-28T12:32:38.000Z,2
2023-06-28T12:36:11.000Z,2.1
2023-06-28T12:39:44.000Z,1.9
2023-06-28T12:43:17.000Z,2
2023-06-28T12:46:49.000Z,1.9
2023-06-28T12:50:22.000Z,2.1
2023-06-28T12:53:55.000Z,2.1
2023-06-28T12:57:27.000Z,1.9
2023-06-28T13:01:00.000Z,2.3
2023-06-28T13:04:33.000Z,2
2023-06-28T13:08:05.000Z,2.1
2023-06-28T13:10:57.000Z,2.1
2023-06-28T13:14:30.000Z,1.8
2023-06-28T13:18:02.000Z,2.1
2023-06-28T13:21:35.000Z,1.9
2023-06-28T13:25:08.000Z,2
2023-06-28T13:28:41.000Z,2.5
2023-06-28T13:32:13.000Z,2.4
2023-06-28T13:35:46.000Z,1.7
2023-06-28T13:39:28.000Z,1.8
2023-06-28T13:43:00.000Z,2.1
2023-06-28T13:46:33.000Z,2
2023-06-28T13:49:24.000Z,2
2023-06-28T13:52:57.000Z,2.1
2023-06-28T13:56:30.000Z,2.1
2023-06-28T14:00:03.000Z,2.1
2023-06-28T14:03:35.000Z,1.8
2023-06-28T14:07:08.000Z,1.9
2023-06-28T14:10:41.000Z,2.1
2023-06-28T14:14:14.000Z,1.8
2023-06-28T14:17:46.000Z,1.9
2023-06-28T14:21:19.000Z,2
2023-06-28T14:24:52.000Z,2
2023-06-28T14:27:43.000Z,1.9
2023-06-28T14:31:16.000Z,1.9
2023-06-28T14:34:49.000Z,1.7
2023-06-28T14:38:22.000Z,1.6
2023-06-28T14:41:54.000Z,1.9
2023-06-28T14:45:27.000Z,2.1
2023-06-28T14:48:59.000Z,1.8
2023-06-28T14:52:32.000Z,1.8
2023-06-28T14:56:05.000Z,1.8
2023-06-28T14:59:38.000Z,1.7
2023-06-28T15:03:11.000Z,1.9
2023-06-28T15:06:02.000Z,2.1
2023-06-28T15:09:37.000Z,2
2023-06-28T15:13:10.000Z,1.9
2023-06-28T15:16:43.000Z,1.7
2023-06-28T15:20:16.000Z,1.9
2023-06-28T15:24:05.000Z,1.7
2023-06-28T15:27:37.000Z,1.8
2023-06-28T15:31:10.000Z,1.9
2023-06-28T15:34:43.000Z,1.9
2023-06-28T15:38:16.000Z,1.9
2023-06-28T15:41:48.000Z,2
2023-06-28T15:44:40.000Z,1.9
2023-06-28T15:48:12.000Z,1.8
2023-06-28T15:51:45.000Z,1.8
2023-06-28T15:55:18.000Z,2
2023-06-28T15:58:50.000Z,1.8
2023-06-28T16:02:23.000Z,1.9
2023-06-28T16:05:56.000Z,2.2
2023-06-28T16:09:29.000Z,2.1
2023-06-28T16:13:02.000Z,1.9
2023-06-28T16:16:34.000Z,1.8
2023-06-28T16:20:07.000Z,2
2023-06-28T16:22:59.000Z,2.2
2023-06-28T16:26:32.000Z,2
2023-06-28T16:30:04.000Z,1.9
2023-06-28T16:33:37.000Z,1.9
2023-06-28T16:37:10.000Z,2
2023-06-28T16:40:43.000Z,1.8
2023-06-28T16:44:16.000Z,1.9
2023-06-28T16:47:49.000Z,2.2
2023-06-28T16:51:22.000Z,2
2023-06-28T16:54:54.000Z,1.9
2023-06-28T16:58:27.000Z,2.2
2023-06-28T17:01:18.000Z,1.9
2023-06-28T17:04:51.000Z,1.8
2023-06-28T17:08:24.000Z,2.1
2023-06-28T17:11:57.000Z,1.9
2023-06-28T17:15:30.000Z,2.2
2023-06-28T17:19:02.000Z,1.9
2023-06-28T17:22:35.000Z,2.1
2023-06-28T17:26:08.000Z,2.3
2023-06-28T17:29:41.000Z,2.1
2023-06-28T17:33:13.000Z,2
2023-06-28T17:36:46.000Z,2.1
2023-06-28T17:39:37.000Z,2.2
2023-06-28T17:43:10.000Z,2.2
2023-06-28T17:46:43.000Z,2.1
2023-06-28T17:50:15.000Z,2.1
2023-06-28T17:53:48.000Z,1.9
2023-06-28T17:57:21.000Z,2.1
2023-06-28T18:00:54.000Z,2.2
2023-06-28T18:04:27.000Z,2.2
2023-06-28T18:08:00.000Z,2.1
2023-06-28T18:11:32.000Z,2
2023-06-28T18:15:05.000Z,2.1
2023-06-28T18:17:56.000Z,2.4
2023-06-28T18:21:29.000Z,2
2023-06-28T18:25:01.000Z,2
2023-06-28T18:28:34.000Z,6.2
2023-06-28T18:32:07.000Z,2.4
2023-06-28T18:35:40.000Z,2.4
2023-06-28T18:39:12.000Z,2.8
2023-06-28T18:42:45.000Z,2.7
2023-06-28T18:46:18.000Z,2.4
2023-06-28T18:49:51.000Z,2.5
2023-06-28T18:53:24.000Z,2.3
2023-06-28T18:56:15.000Z,2.4
2023-06-28T18:59:48.000Z,2.3
2023-06-28T19:03:20.000Z,2.3
2023-06-28T19:06:54.000Z,2.7
2023-06-28T19:10:26.000Z,2.7
2023-06-28T19:13:59.000Z,2.3
2023-06-28T19:17:32.000Z,2.2
2023-06-28T19:21:05.000Z,2.4
2023-06-28T19:24:38.000Z,2.4
2023-06-28T19:28:10.000Z,2.4
2023-06-28T19:31:43.000Z,2.5
2023-06-28T19:34:35.000Z,2.8
2023-06-28T19:38:08.000Z,2.6
2023-06-28T19:41:41.000Z,2.6
2023-06-28T19:45:13.000Z,2.4
2023-06-28T19:48:46.000Z,2.4
2023-06-28T19:52:19.000Z,2.5
2023-06-28T19:55:52.000Z,2.5
2023-06-28T19:59:24.000Z,2.8
2023-06-28T20:02:57.000Z,2.5
2023-06-28T20:06:30.000Z,2.6
2023-06-28T20:10:08.000Z,2.5
2023-06-28T20:12:59.000Z,3
2023-06-28T20:16:32.000Z,2.5
2023-06-28T20:20:04.000Z,2.5
2023-06-28T20:23:37.000Z,2.4
2023-06-28T20:27:10.000Z,2.9
2023-06-28T20:30:42.000Z,3
2023-06-28T20:34:15.000Z,2.8
2023-06-28T20:37:48.000Z,2.8
2023-06-28T20:41:21.000Z,3
2023-06-28T20:44:53.000Z,2.8
2023-06-28T20:48:26.000Z,2.9
2023-06-28T20:51:18.000Z,2.6
2023-06-28T20:54:50.000Z,2.7
2023-06-28T20:58:23.000Z,2.8
2023-06-28T21:01:55.000Z,2.8
2023-06-28T21:05:28.000Z,2.9
2023-06-28T21:09:01.000Z,3
2023-06-28T21:12:33.000Z,3
2023-06-28T21:16:06.000Z,2.8
2023-06-28T21:19:39.000Z,2.8
2023-06-28T21:23:12.000Z,2.9
2023-06-28T21:26:45.000Z,3
2023-06-28T21:29:36.000Z,2.6
2023-06-28T21:33:09.000Z,2.9
2023-06-28T21:36:41.000Z,2.8
2023-06-28T21:40:14.000Z,2.9
2023-06-28T21:43:47.000Z,3
2023-06-28T21:47:19.000Z,2.8
2023-06-28T21:50:52.000Z,2.8
2023-06-28T21:54:25.000Z,2.8
2023-06-28T21:57:57.000Z,3.2
2023-06-28T22:01:30.000Z,3.1
2023-06-28T22:05:03.000Z,2.7
2023-06-28T22:07:54.000Z,3
2023-06-28T22:11:27.000Z,2.7
2023-06-28T22:15:00.000Z,3.1
2023-06-28T22:18:33.000Z,2.8
2023-06-28T22:22:05.000Z,3
2023-06-28T22:25:38.000Z,3
2023-06-28T22:29:10.000Z,3.2
2023-06-28T22:32:43.000Z,3.2
2023-06-28T22:36:16.000Z,3.2
2023-06-28T22:39:49.000Z,3.2
2023-06-28T22:43:21.000Z,3.1
2023-06-28T22:46:12.000Z,3.1
2023-06-28T22:49:45.000Z,3
2023-06-28T22:53:18.000Z,2.9
2023-06-28T22:56:50.000Z,3.2
2023-06-28T23:00:23.000Z,3.1
2023-06-28T23:03:55.000Z,2.9
2023-06-28T23:07:28.000Z,3
2023-06-28T23:11:01.000Z,3.2
2023-06-28T23:14:34.000Z,3.1
2023-06-28T23:18:07.000Z,3.5
2023-06-28T23:21:39.000Z,3.1
2023-06-28T23:24:31.000Z,3.2
2023-06-28T23:28:03.000Z,3.5
2023-06-28T23:31:36.000Z,3.2
2023-06-28T23:35:08.000Z,2.9
2023-06-28T23:38:41.000Z,3.4
2023-06-28T23:42:14.000Z,3.7
2023-06-28T23:45:47.000Z,3.5
2023-06-28T23:49:19.000Z,3.5
2023-06-28T23:52:52.000Z,3.4
2023-06-28T23:56:24.000Z,3.6
2023-06-28T23:59:57.000Z,3.6
